createdAt,value
2022-09-06T00:01:26.146Z,100704.47
2022-09-06T00:03:53.350Z,100693.06
2022-09-06T00:06:20.586Z,100702.78
2022-09-06T00:08:48.328Z,100697.44
2022-09-06T00:11:16.368Z,100694.59
2022-09-06T00:13:43.962Z,100694.09
2022-09-06T00:16:17.439Z,100695.06
2022-09-06T00:18:44.831Z,100685.06
2022-09-06T00:21:17.779Z,100685.53
2022-09-06T00:23:45.026Z,100683.03
2022-09-06T00:26:12.273Z,100688.22
2022-09-06T00:28:39.506Z,100691.06
2022-09-06T00:31:17.578Z,100686.38
2022-09-06T00:33:44.625Z,100699.72
2022-09-06T00:36:12.961Z,100698.41
2022-09-06T00:38:40.756Z,100695.03
2022-09-06T00:41:08.996Z,100702.88
2022-09-06T00:43:36.251Z,100699.69
2022-09-06T00:46:07.459Z,100701.03
2022-09-06T00:48:35.377Z,100695.34
2022-09-06T00:51:04.304Z,100689.47
2022-09-06T00:53:34.352Z,100694.69
2022-09-06T00:56:04.247Z,100698.53
2022-09-06T00:58:35.042Z,100700.38
2022-09-06T01:01:02.617Z,100706.75
2022-09-06T01:03:29.548Z,100698.72
2022-09-06T01:06:24.576Z,100697.22
2022-09-06T01:09:13.540Z,100697.53
2022-09-06T01:11:53.806Z,100692.53
2022-09-06T01:14:32.815Z,100692.03
2022-09-06T01:17:11.376Z,100679.88
2022-09-06T01:20:15.846Z,100690.69
2022-09-06T01:23:01.447Z,100690.34
2022-09-06T01:25:39.036Z,100687.19
2022-09-06T01:28:39.643Z,100697.87
2022-09-06T01:31:11.621Z,100695.69
2022-09-06T01:33:48.823Z,100686.84
2022-09-06T01:36:19.476Z,100692.03
2022-09-06T01:38:46.550Z,100690.34
2022-09-06T01:41:13.444Z,100684.94
2022-09-06T01:43:43.035Z,100690.34
2022-09-06T01:46:15.645Z,100689.50
2022-09-06T01:49:15.088Z,100692.09
2022-09-06T01:52:22.028Z,100688.75
2022-09-06T01:55:17.099Z,100679.09
2022-09-06T01:57:50.265Z,100689.09
2022-09-06T02:00:22.533Z,100691.09
2022-09-06T02:02:52.987Z,100682.41
2022-09-06T02:05:31.174Z,100681.75
2022-09-06T02:08:01.930Z,100684.22
2022-09-06T02:10:34.818Z,100681.22
2022-09-06T02:13:02.502Z,100685.97
2022-09-06T02:15:34.455Z,100687.66
2022-09-06T02:18:05.999Z,100681.81
2022-09-06T02:20:35.394Z,100679.44
2022-09-06T02:23:04.507Z,100681.28
2022-09-06T02:25:38.867Z,100676.59
2022-09-06T02:28:08.034Z,100678.44
2022-09-06T02:30:38.520Z,100678.66
2022-09-06T02:33:14.166Z,100671.03
2022-09-06T02:35:46.779Z,100672.81
2022-09-06T02:38:14.311Z,100671.81
2022-09-06T02:40:41.259Z,100667.47
2022-09-06T02:43:08.549Z,100668.97
2022-09-06T02:45:35.687Z,100670.28
2022-09-06T02:48:02.674Z,100666.03
2022-09-06T02:50:29.615Z,100671.66
2022-09-06T02:53:05.821Z,100667.53
2022-09-06T02:55:32.885Z,100668.19
2022-09-06T02:58:00.024Z,100666.78
2022-09-06T03:00:27.179Z,100669.34
2022-09-06T03:02:54.020Z,100666.47
2022-09-06T03:05:21.548Z,100665.72
2022-09-06T03:07:48.999Z,100663.84
2022-09-06T03:10:15.980Z,100665.28
2022-09-06T03:12:43.988Z,100660.09
2022-09-06T03:15:12.435Z,100656.44
2022-09-06T03:17:39.375Z,100660.03
2022-09-06T03:20:07.356Z,100666.19
2022-09-06T03:22:34.194Z,100660.41
2022-09-06T03:25:01.107Z,100659.06
2022-09-06T03:27:28.243Z,100658.34
2022-09-06T03:29:55.080Z,100663.69
2022-09-06T03:32:21.999Z,100663.19
2022-09-06T03:34:49.084Z,100667.53
2022-09-06T03:37:15.968Z,100666.91
2022-09-06T03:39:43.325Z,100663.56
2022-09-06T03:42:10.438Z,100655.19
2022-09-06T03:44:37.315Z,100653.09
2022-09-06T03:47:04.343Z,100659.69
2022-09-06T03:49:31.416Z,100665.62
2022-09-06T03:51:58.264Z,100667.53
2022-09-06T03:54:25.099Z,100670.25
2022-09-06T03:56:52.200Z,100679.25
2022-09-06T03:59:19.045Z,100667.19
2022-09-06T04:01:45.878Z,100677.25
2022-09-06T04:04:12.965Z,100680.19
2022-09-06T04:06:39.819Z,100677.03
2022-09-06T04:09:06.924Z,100670.38
2022-09-06T04:11:34.046Z,100670.03
2022-09-06T04:14:00.948Z,100666.53
2022-09-06T04:16:27.813Z,100667.69
2022-09-06T04:18:55.068Z,100672.31
2022-09-06T04:21:21.896Z,100669.38
2022-09-06T04:23:48.829Z,100676.38
2022-09-06T04:26:15.974Z,100675.22
2022-09-06T04:28:42.824Z,100674.16
2022-09-06T04:31:09.677Z,100680.53
2022-09-06T04:33:38.226Z,100675.00
2022-09-06T04:36:08.333Z,100685.44
2022-09-06T04:38:37.626Z,100684.22
2022-09-06T04:41:05.154Z,100679.25
2022-09-06T04:43:32.152Z,100677.41
2022-09-06T04:46:25.131Z,100680.09
2022-09-06T04:48:53.554Z,100680.78
2022-09-06T04:51:20.783Z,100674.37
2022-09-06T04:53:47.742Z,100676.38
2022-09-06T04:56:17.369Z,100673.44
2022-09-06T04:58:45.771Z,100676.41
2022-09-06T05:01:12.800Z,100679.91
2022-09-06T05:03:39.891Z,100679.84
2022-09-06T05:06:12.300Z,100668.34
2022-09-06T05:08:40.475Z,100669.94
2022-09-06T05:11:08.896Z,100668.34
2022-09-06T05:13:35.775Z,100674.69
2022-09-06T05:16:07.234Z,100673.19
2022-09-06T05:18:34.178Z,100673.22
2022-09-06T05:21:04.158Z,100675.94
2022-09-06T05:23:34.409Z,100672.00
2022-09-06T05:26:05.029Z,100671.00
2022-09-06T05:28:35.224Z,100677.31
2022-09-06T05:31:07.222Z,100675.03
2022-09-06T05:33:34.295Z,100672.94
2022-09-06T05:36:05.375Z,100667.94
2022-09-06T05:38:35.336Z,100670.84
2022-09-06T05:41:05.285Z,100671.53
2022-09-06T05:43:35.003Z,100674.16
2022-09-06T05:46:05.056Z,100677.47
2022-09-06T05:48:36.594Z,100673.12
2022-09-06T05:51:07.025Z,100682.16
2022-09-06T05:53:37.995Z,100692.34
2022-09-06T05:56:05.670Z,100687.03
2022-09-06T05:58:32.658Z,100671.69
2022-09-06T06:01:30.142Z,100681.22
2022-09-06T06:04:07.926Z,100676.88
2022-09-06T06:06:34.933Z,100684.94
2022-09-06T06:09:02.082Z,100688.75
2022-09-06T06:11:31.044Z,100687.97
2022-09-06T06:13:58.995Z,100699.16
2022-09-06T06:16:26.246Z,100680.34
2022-09-06T06:18:53.210Z,100685.03
2022-09-06T06:21:24.595Z,100683.34
2022-09-06T06:23:53.755Z,100680.84
2022-09-06T06:26:21.087Z,100681.69
2022-09-06T06:28:49.020Z,100679.62
2022-09-06T06:31:16.566Z,100686.62
2022-09-06T06:33:44.299Z,100690.16
2022-09-06T06:36:14.014Z,100684.78
2022-09-06T06:38:42.954Z,100688.88
2022-09-06T06:41:12.716Z,100685.81
2022-09-06T06:43:39.687Z,100686.91
2022-09-06T06:46:09.277Z,100697.03
2022-09-06T06:48:37.483Z,100688.63
2022-09-06T06:51:04.409Z,100705.25
2022-09-06T06:53:32.803Z,100704.06
2022-09-06T06:56:01.440Z,100698.50
2022-09-06T06:58:28.584Z,100694.94
2022-09-06T07:00:56.033Z,100700.19
2022-09-06T07:03:23.018Z,100718.13
2022-09-06T07:08:40.055Z,100713.78
2022-09-06T07:11:08.129Z,100711.06
2022-09-06T07:13:35.029Z,100718.19
2022-09-06T07:16:12.502Z,100707.31
2022-09-06T07:18:42.187Z,100713.25
2022-09-06T07:24:06.450Z,100714.00
2022-09-06T07:26:34.985Z,100721.81
2022-09-06T07:29:03.676Z,100723.31
2022-09-06T07:34:20.559Z,100716.91
2022-09-06T07:36:48.278Z,100725.44
2022-09-06T07:39:15.472Z,100725.59
2022-09-06T07:41:43.231Z,100728.06
2022-09-06T07:44:10.431Z,100726.47
2022-09-06T07:46:38.044Z,100716.69
2022-09-06T07:49:05.901Z,100712.34
2022-09-06T07:51:33.235Z,100716.81
2022-09-06T07:54:34.704Z,100716.31
2022-09-06T07:56:48.040Z,100718.97
2022-09-06T07:59:15.098Z,100713.50
2022-09-06T08:01:42.593Z,100724.06
2022-09-06T08:04:12.805Z,100721.19
2022-09-06T08:09:30.082Z,100722.56
2022-09-06T08:11:56.968Z,100722.38
2022-09-06T08:14:23.882Z,100717.50
2022-09-06T08:16:51.051Z,100714.13
2022-09-06T08:19:18.446Z,100715.59
2022-09-06T08:21:45.486Z,100709.00
2022-09-06T08:24:12.687Z,100706.34
2022-09-06T08:26:40.759Z,100704.94
2022-09-06T08:29:08.874Z,100698.88
2022-09-06T08:31:38.600Z,100701.91
2022-09-06T08:34:05.601Z,100704.97
2022-09-06T08:36:33.077Z,100700.41
2022-09-06T08:39:02.038Z,100699.41
2022-09-06T08:41:38.063Z,100692.06
2022-09-06T08:46:58.355Z,100691.41
2022-09-06T08:49:54.723Z,100695.81
2022-09-06T08:52:54.479Z,100693.28
2022-09-06T08:55:36.714Z,100688.75
2022-09-06T08:58:27.806Z,100695.75
2022-09-06T09:00:59.355Z,100694.81
2022-09-06T09:03:36.589Z,100687.56
2022-09-06T09:06:10.045Z,100689.44
2022-09-06T09:08:41.475Z,100675.56
2022-09-06T09:11:18.693Z,100688.84
2022-09-06T09:13:55.618Z,100683.06
2022-09-06T09:16:23.717Z,100680.09
2022-09-06T09:18:56.138Z,100673.91
2022-09-06T09:21:30.363Z,100673.78
2022-09-06T09:23:59.438Z,100677.19
2022-09-06T09:26:28.768Z,100677.31
2022-09-06T09:29:06.957Z,100666.47
2022-09-06T09:31:39.830Z,100665.50
2022-09-06T09:34:12.404Z,100655.81
2022-09-06T09:36:40.048Z,100664.19
2022-09-06T09:39:11.287Z,100645.94
2022-09-06T09:41:41.135Z,100637.28
2022-09-06T09:44:17.297Z,100641.50
2022-09-06T09:46:44.374Z,100642.47
2022-09-06T09:49:13.986Z,100635.66
2022-09-06T09:51:45.016Z,100633.28
2022-09-06T09:54:14.381Z,100627.72
2022-09-06T09:56:46.983Z,100626.28
2022-09-06T09:59:23.203Z,100627.16
2022-09-06T10:01:52.905Z,100627.13
2022-09-06T10:04:47.737Z,100622.84
2022-09-06T10:07:17.619Z,100615.72
2022-09-06T10:10:01.910Z,100616.41
2022-09-06T10:12:32.935Z,100602.34
2022-09-06T10:15:04.920Z,100605.44
2022-09-06T10:17:34.959Z,100596.06
2022-09-06T10:20:08.607Z,100609.84
2022-09-06T10:22:44.111Z,100598.41
2022-09-06T10:25:20.357Z,100594.16
2022-09-06T10:28:11.484Z,100603.66
2022-09-06T10:31:09.160Z,100599.63
2022-09-06T10:33:51.155Z,100597.84
2022-09-06T10:36:21.295Z,100593.31
2022-09-06T10:38:54.917Z,100589.06
2022-09-06T10:41:33.494Z,100582.00
2022-09-06T10:44:09.342Z,100583.59
2022-09-06T10:46:38.191Z,100572.56
2022-09-06T10:49:09.467Z,100566.50
2022-09-06T10:51:39.949Z,100558.87
2022-09-06T10:54:09.728Z,100575.34
2022-09-06T10:56:50.798Z,100572.72
2022-09-06T10:59:50.256Z,100572.94
2022-09-06T11:02:38.004Z,100575.09
2022-09-06T11:11:03.512Z,100578.00
2022-09-06T11:13:32.774Z,100574.69
2022-09-06T11:16:07.989Z,100566.25
2022-09-06T11:18:38.071Z,100573.25
2022-09-06T11:21:20.277Z,100559.44
2022-09-06T11:23:59.634Z,100556.50
2022-09-06T11:26:34.990Z,100554.34
2022-09-06T11:29:09.240Z,100551.44
2022-09-06T11:34:51.873Z,100547.81
2022-09-06T11:37:26.454Z,100543.03
2022-09-06T11:42:54.417Z,100537.59
2022-09-06T11:45:39.799Z,100523.03
2022-09-06T11:48:26.847Z,100529.72
2022-09-06T11:50:53.919Z,100526.78
2022-09-06T11:53:22.931Z,100520.62
2022-09-06T11:56:10.045Z,100506.47
2022-09-06T11:58:39.821Z,100521.84
2022-09-06T12:01:13.104Z,100514.16
2022-09-06T12:06:38.916Z,100514.69
2022-09-06T12:09:29.085Z,100513.16
2022-09-06T12:11:56.870Z,100494.53
2022-09-06T12:14:34.520Z,100491.69
2022-09-06T12:17:01.491Z,100494.03
2022-09-06T12:19:52.327Z,100493.03
2022-09-06T12:22:32.765Z,100497.03
2022-09-06T12:25:10.547Z,100481.56
2022-09-06T12:28:01.584Z,100480.16
2022-09-06T12:30:42.308Z,100472.13
2022-09-06T12:33:24.319Z,100461.69
2022-09-06T12:38:25.798Z,100443.53
2022-09-06T12:40:58.477Z,100447.06
2022-09-06T12:43:26.070Z,100450.75
2022-09-06T12:45:53.533Z,100448.50
2022-09-06T12:48:29.445Z,100447.19
2022-09-06T12:51:16.209Z,100454.81
2022-09-06T12:54:01.517Z,100448.66
2022-09-06T12:56:30.385Z,100434.72
2022-09-06T12:59:14.321Z,100435.62
2022-09-06T13:01:46.038Z,100432.25
2022-09-06T13:04:25.017Z,100423.94
2022-09-06T13:06:52.384Z,100424.16
2022-09-06T13:09:20.516Z,100414.75
2022-09-06T13:11:53.715Z,100408.12
2022-09-06T13:14:26.325Z,100420.37
2022-09-06T13:16:56.812Z,100417.88
2022-09-06T13:19:38.321Z,100408.62
2022-09-06T13:22:11.194Z,100406.66
2022-09-06T13:24:47.070Z,100408.31
2022-09-06T13:27:34.585Z,100402.03
2022-09-06T13:30:10.848Z,100409.75
2022-09-06T13:32:46.529Z,100395.69
2022-09-06T13:35:23.842Z,100393.16
2022-09-06T13:37:50.992Z,100391.75
2022-09-06T13:41:06.469Z,100394.00
2022-09-06T13:43:33.454Z,100386.28
2022-09-06T13:46:09.006Z,100380.25
2022-09-06T13:48:44.649Z,100373.00
2022-09-06T13:51:12.137Z,100366.94
2022-09-06T13:53:39.055Z,100374.78
2022-09-06T13:56:08.690Z,100363.91
2022-09-06T13:58:36.614Z,100368.03
2022-09-06T14:01:08.489Z,100370.31
2022-09-06T14:03:38.152Z,100371.97
2022-09-06T14:06:05.239Z,100361.41
2022-09-06T14:09:02.894Z,100358.25
2022-09-06T14:11:24.954Z,100361.06
2022-09-06T14:13:51.852Z,100352.31
2022-09-06T14:16:18.880Z,100356.34
2022-09-06T14:18:46.322Z,100350.09
2022-09-06T14:21:13.446Z,100350.69
2022-09-06T14:23:40.501Z,100349.09
2022-09-06T14:26:07.703Z,100345.44
2022-09-06T14:28:37.675Z,100342.63
2022-09-06T14:31:19.049Z,100341.94
2022-09-06T14:33:46.517Z,100349.66
2022-09-06T14:36:18.860Z,100337.53
2022-09-06T14:38:46.218Z,100331.87
2022-09-06T14:41:14.588Z,100334.47
2022-09-06T14:43:47.827Z,100333.91
2022-09-06T14:46:16.001Z,100330.44
2022-09-06T14:48:43.136Z,100324.53
2022-09-06T14:51:13.783Z,100329.13
2022-09-06T14:53:41.991Z,100309.94
2022-09-06T14:56:10.189Z,100313.09
2022-09-06T14:58:38.385Z,100306.38
2022-09-06T15:01:14.429Z,100300.63
2022-09-06T15:03:43.526Z,100303.84
2022-09-06T15:06:10.973Z,100319.88
2022-09-06T15:08:38.387Z,100312.53
2022-09-06T15:11:07.984Z,100315.44
2022-09-06T15:13:37.141Z,100360.13
2022-09-06T15:16:08.453Z,100363.41
2022-09-06T15:18:35.883Z,100350.50
2022-09-06T15:21:10.930Z,100355.94
2022-09-06T15:23:39.743Z,100399.56
2022-09-06T15:26:08.645Z,100407.44
2022-09-06T15:28:37.150Z,100405.88
2022-09-06T15:31:08.373Z,100402.94
2022-09-06T15:33:38.721Z,100399.16
2022-09-06T15:36:07.169Z,100399.44
2022-09-06T15:38:41.125Z,100404.25
2022-09-06T15:41:13.228Z,100398.62
2022-09-06T15:43:42.913Z,100399.19
2022-09-06T15:46:10.176Z,100387.97
2022-09-06T15:49:06.057Z,100383.59
2022-09-06T15:51:35.197Z,100373.91
2022-09-06T15:54:02.149Z,100364.94
2022-09-06T15:56:29.076Z,100371.56
2022-09-06T15:58:56.290Z,100362.25
2022-09-06T16:01:25.289Z,100358.47
2022-09-06T16:04:03.801Z,100353.38
2022-09-06T16:06:35.986Z,100361.06
2022-09-06T16:09:08.603Z,100351.63
2022-09-06T16:11:36.821Z,100349.44
2022-09-06T16:14:06.148Z,100353.97
2022-09-06T16:16:34.514Z,100357.75
2022-09-06T16:19:01.813Z,100354.25
2022-09-06T16:21:32.164Z,100363.78
2022-09-06T16:24:01.796Z,100356.28
2022-09-06T16:26:34.123Z,100355.63
2022-09-06T16:29:01.670Z,100363.16
2022-09-06T16:31:29.750Z,100360.56
2022-09-06T16:33:57.830Z,100360.56
2022-09-06T16:36:25.439Z,100363.31
2022-09-06T16:38:53.120Z,100368.22
2022-09-06T16:41:37.373Z,100370.84
2022-09-06T16:44:04.587Z,100361.41
2022-09-06T16:46:31.596Z,100368.38
2022-09-06T16:49:04.390Z,100365.87
2022-09-06T16:51:31.842Z,100379.09
2022-09-06T16:53:59.672Z,100373.19
2022-09-06T16:56:31.722Z,100372.16
2022-09-06T16:59:01.213Z,100371.44
2022-09-06T17:01:29.806Z,100382.78
2022-09-06T17:03:57.433Z,100386.50
2022-09-06T17:06:24.887Z,100392.59
2022-09-06T17:08:52.121Z,100396.56
2022-09-06T17:11:21.579Z,100405.00
2022-09-06T17:13:50.195Z,100405.16
2022-09-06T17:16:38.989Z,100407.69
2022-09-06T17:19:07.022Z,100412.56
2022-09-06T17:21:34.214Z,100413.31
2022-09-06T17:24:04.589Z,100414.62
2022-09-06T17:26:34.098Z,100415.53
2022-09-06T17:29:01.007Z,100412.66
2022-09-06T17:31:28.361Z,100402.31
2022-09-06T17:33:55.895Z,100402.25
2022-09-06T17:36:25.086Z,100400.53
2022-09-06T17:38:53.663Z,100399.63
2022-09-06T17:41:24.272Z,100410.75
2022-09-06T17:43:52.864Z,100415.38
2022-09-06T17:46:20.281Z,100420.94
2022-09-06T17:48:47.511Z,100410.94
2022-09-06T17:51:14.496Z,100403.91
2022-09-06T17:53:43.865Z,100406.00
2022-09-06T17:56:12.346Z,100404.34
2022-09-06T17:58:40.457Z,100406.47
2022-09-06T18:01:09.853Z,100392.31
2022-09-06T18:03:39.359Z,100397.78
2022-09-06T18:06:10.706Z,100392.75
2022-09-06T18:08:40.142Z,100392.56
2022-09-06T18:11:12.331Z,100396.03
2022-09-06T18:13:40.011Z,100396.56
2022-09-06T18:16:06.951Z,100396.84
2022-09-06T18:18:34.898Z,100399.25
2022-09-06T18:21:03.697Z,100395.38
2022-09-06T18:23:33.668Z,100405.72
2022-09-06T18:26:11.867Z,100400.38
2022-09-06T18:28:39.091Z,100414.41
2022-09-06T18:31:08.688Z,100420.37
2022-09-06T18:33:36.220Z,100432.69
2022-09-06T18:36:07.441Z,100432.84
2022-09-06T18:38:39.094Z,100434.97
2022-09-06T18:41:08.260Z,100421.56
2022-09-06T18:43:39.960Z,100416.84
2022-09-06T18:46:09.526Z,100411.53
2022-09-06T18:48:37.521Z,100412.03
2022-09-06T18:51:12.985Z,100411.22
2022-09-06T18:53:44.800Z,100402.94
2022-09-06T18:56:13.222Z,100404.81
2022-09-06T18:58:41.282Z,100396.81
2022-09-06T19:01:10.391Z,100393.78
2022-09-06T19:03:38.127Z,100394.06
2022-09-06T19:06:13.903Z,100395.72
2022-09-06T19:08:41.143Z,100399.06
2022-09-06T19:11:10.418Z,100402.75
2022-09-06T19:13:39.473Z,100401.09
2022-09-06T19:16:06.986Z,100413.69
2022-09-06T19:18:34.925Z,100412.41
2022-09-06T19:21:10.215Z,100408.72
2022-09-06T19:23:39.999Z,100411.09
2022-09-06T19:26:14.560Z,100411.81
2022-09-06T19:28:41.757Z,100411.81
2022-09-06T19:31:18.649Z,100416.28
2022-09-06T19:33:48.231Z,100414.66
2022-09-06T19:36:16.515Z,100411.91
2022-09-06T19:41:32.073Z,100407.19
2022-09-06T19:43:59.269Z,100406.28
2022-09-06T19:46:26.798Z,100405.91
2022-09-06T19:48:56.041Z,100397.34
2022-09-06T19:51:24.249Z,100392.19
2022-09-06T19:54:02.009Z,100392.19
2022-09-06T19:56:33.275Z,100386.22
2022-09-06T19:59:02.100Z,100386.09
2022-09-06T20:01:31.444Z,100378.38
2022-09-06T20:04:00.036Z,100373.84
2022-09-06T20:06:27.323Z,100370.50
2022-09-06T20:08:56.490Z,100366.16
2022-09-06T20:11:26.203Z,100371.47
2022-09-06T20:13:53.136Z,100366.13
2022-09-06T20:16:42.307Z,100377.03
2022-09-06T20:19:11.127Z,100369.78
2022-09-06T20:21:38.070Z,100372.91
2022-09-06T20:24:05.056Z,100374.66
2022-09-06T20:26:32.253Z,100378.94
2022-09-06T20:29:01.166Z,100377.13
2022-09-06T20:31:29.563Z,100375.34
2022-09-06T20:33:59.050Z,100378.03
2022-09-06T20:36:26.067Z,100376.37
2022-09-06T20:38:53.026Z,100373.59
2022-09-06T20:41:22.787Z,100380.66
2022-09-06T20:43:54.310Z,100377.34
2022-09-06T20:46:24.063Z,100373.81
2022-09-06T20:48:51.953Z,100373.25
2022-09-06T20:51:21.061Z,100378.75
2022-09-06T20:54:06.716Z,100376.78
2022-09-06T20:56:37.219Z,100372.72
2022-09-06T20:59:07.251Z,100383.72
2022-09-06T21:01:37.177Z,100379.06
2022-09-06T21:04:06.734Z,100374.78
2022-09-06T21:06:35.692Z,100380.34
2022-09-06T21:09:04.999Z,100388.22
2022-09-06T21:11:32.402Z,100375.50
2022-09-06T21:13:59.386Z,100370.28
2022-09-06T21:16:28.334Z,100371.03
2022-09-06T21:18:57.252Z,100373.13
2022-09-06T21:21:25.488Z,100379.47
2022-09-06T21:24:01.492Z,100377.34
2022-09-06T21:26:29.054Z,100373.50
2022-09-06T21:28:56.207Z,100369.88
2022-09-06T21:31:25.391Z,100371.84
2022-09-06T21:33:54.976Z,100364.84
2022-09-06T21:36:31.030Z,100368.53
2022-09-06T21:39:00.125Z,100360.38
2022-09-06T21:41:28.186Z,100360.22
2022-09-06T21:43:57.283Z,100360.09
2022-09-06T21:46:31.757Z,100360.41
2022-09-06T21:49:10.964Z,100362.22
2022-09-06T21:51:38.691Z,100358.75
2022-09-06T21:54:06.791Z,100357.25
2022-09-06T21:56:35.901Z,100350.22
2022-09-06T21:59:03.818Z,100352.84
2022-09-06T22:01:32.723Z,100356.88
2022-09-06T22:04:00.383Z,100362.06
2022-09-06T22:06:29.922Z,100349.19
2022-09-06T22:08:58.761Z,100350.19
2022-09-06T22:11:28.018Z,100348.00
2022-09-06T22:13:58.586Z,100349.53
2022-09-06T22:16:26.804Z,100355.25
2022-09-06T22:18:53.928Z,100349.25
2022-09-06T22:21:21.631Z,100358.75
2022-09-06T22:24:21.293Z,100356.06
2022-09-06T22:26:48.203Z,100353.22
2022-09-06T22:29:16.659Z,100347.88
2022-09-06T22:31:43.715Z,100351.69
2022-09-06T22:34:10.901Z,100353.88
2022-09-06T22:36:38.580Z,100355.75
2022-09-06T22:39:06.387Z,100353.53
2022-09-06T22:41:34.109Z,100361.41
2022-09-06T22:44:02.265Z,100350.59
2022-09-06T22:46:29.247Z,100345.91
2022-09-06T22:48:56.203Z,100355.78
2022-09-06T22:51:23.414Z,100349.25
2022-09-06T22:53:50.730Z,100349.28
2022-09-06T22:56:17.696Z,100354.28
2022-09-06T22:58:44.896Z,100348.63
2022-09-06T23:01:14.013Z,100343.28
2022-09-06T23:03:42.179Z,100337.94
2022-09-06T23:06:09.888Z,100334.91
2022-09-06T23:08:38.195Z,100331.78
2022-09-06T23:11:13.307Z,100341.63
2022-09-06T23:13:44.081Z,100338.59
2022-09-06T23:16:13.351Z,100338.44
2022-09-06T23:18:40.682Z,100335.59
2022-09-06T23:21:10.186Z,100339.63
2022-09-06T23:23:38.349Z,100335.13
2022-09-06T23:26:16.777Z,100330.25
2022-09-06T23:28:43.724Z,100336.13
2022-09-06T23:31:13.801Z,100337.62
2022-09-06T23:33:41.831Z,100341.63
2022-09-06T23:36:11.835Z,100337.12
2022-09-06T23:38:40.555Z,100331.97
2022-09-06T23:41:09.867Z,100332.78
2022-09-06T23:43:40.778Z,100331.59
2022-09-06T23:46:08.761Z,100333.28
2022-09-06T23:48:36.003Z,100320.94
2022-09-06T23:51:06.777Z,100327.25
2022-09-06T23:53:33.987Z,100324.09
2022-09-06T23:56:01.530Z,100324.44
2022-09-06T23:58:31.714Z,100321.25
